This is the latest recevied weather packets stored in our database for station/object WP3OF. If no packets are shown the sender has not sent any weather packets the latest 10 day(s).
| Time | Temp. | Humidity | Pressure | Rain* | Wind** | Luminosity | Snow |
|---|---|---|---|---|---|---|---|
| 1788526660 | 28.33° C | 64% | 1018.9 hPa | 0 mm | - | - | - |
| 1788526363 | 28.33° C | 64% | 1018.9 hPa | 0 mm | - | - | - |
| 1788526050 | 28.89° C | 62% | 1019.1 hPa | 0 mm | - | - | - |
| 1788525746 | 28.89° C | 63% | 1019.1 hPa | 0 mm | - | - | - |
| 1788525446 | 28.89° C | 62% | 1019 hPa | 0 mm | - | - | - |
| 1788525141 | 28.33° C | 63% | 1019 hPa | 0 mm | - | - | - |
| 1788524836 | 28.33° C | 66% | 1018.8 hPa | 0 mm | - | - | - |
| 1788524531 | 27.78° C | 67% | 1018.9 hPa | 0 mm | - | - | - |
| 1788524226 | 27.78° C | 67% | 1019 hPa | 0 mm | - | - | - |
| 1788523922 | 27.22° C | 68% | 1018.8 hPa | 0 mm | - | - | - |
| 1788523618 | 27.22° C | 68% | 1018.8 hPa | 0 mm | - | - | - |
| 1788523314 | 27.22° C | 68% | 1018.9 hPa | 0 mm | - | - | - |
| 1788523009 | 27.22° C | 72% | 1018.8 hPa | 0 mm | - | - | - |
| 1788522703 | 26.67° C | 74% | 1018.7 hPa | 0 mm | - | - | - |
| 1788522398 | 26.11° C | 76% | 1018.5 hPa | 0 mm | - | - | - |
| 1788522097 | 25.56° C | 79% | 1018.7 hPa | 0 mm | - | - | - |
| 1788521792 | 25.56° C | 80% | 1018.5 hPa | 0 mm | - | - | - |
| 1788521491 | 26.11° C | 76% | 1018.7 hPa | 0 mm | - | - | - |
| 1788521187 | 26.11° C | 76% | 1018.5 hPa | 0 mm | - | - | - |
| 1788520883 | 25.56° C | 76% | 1018.5 hPa | 0 mm | - | - | - |
| 1788520578 | 24.44° C | 82% | 1018.1 hPa | 0 mm | - | - | - |
| 1788520274 | 23.89° C | 86% | 1018.2 hPa | 0 mm | - | - | - |
| 1788519969 | 23.89° C | 88% | 1018.1 hPa | 0 mm | - | - | - |
| 1788519669 | 23.89° C | 87% | 1018.2 hPa | 0 mm | - | - | - |
| 1788519368 | 23.33° C | 88% | 1018.1 hPa | 0 mm | - | - | - |
* Rain latest hour (hover to see other rain measurements)
** Current wind speed in m/s (hover to see current wind gust speed)